sensor_id;sensor_type;location;lat;lon;timestamp;temperature;humidity
1704;DHT22;849;48.780;9.216;2023-04-25T00:02:14;12.40;99.90
1704;DHT22;849;48.780;9.216;2023-04-25T00:04:40;12.50;99.90
1704;DHT22;849;48.780;9.216;2023-04-25T00:07:06;12.40;99.90
1704;DHT22;849;48.780;9.216;2023-04-25T00:09:32;12.50;99.90
1704;DHT22;849;48.780;9.216;2023-04-25T00:11:57;12.60;99.90
1704;DHT22;849;48.780;9.216;2023-04-25T00:14:23;12.70;99.90
1704;DHT22;849;48.780;9.216;2023-04-25T00:16:48;12.80;99.90
1704;DHT22;849;48.780;9.216;2023-04-25T00:19:17;12.70;99.90
1704;DHT22;849;48.780;9.216;2023-04-25T00:21:42;12.70;99.90
1704;DHT22;849;48.780;9.216;2023-04-25T00:24:12;12.80;99.90
1704;DHT22;849;48.780;9.216;2023-04-25T00:26:38;12.90;99.90
1704;DHT22;849;48.780;9.216;2023-04-25T00:29:03;13.00;99.90
1704;DHT22;849;48.780;9.216;2023-04-25T00:31:29;12.90;99.90
1704;DHT22;849;48.780;9.216;2023-04-25T00:33:55;12.90;99.90
1704;DHT22;849;48.780;9.216;2023-04-25T00:36:21;12.90;99.90
1704;DHT22;849;48.780;9.216;2023-04-25T00:38:47;12.80;99.90
1704;DHT22;849;48.780;9.216;2023-04-25T00:41:12;12.80;99.90
1704;DHT22;849;48.780;9.216;2023-04-25T00:43:39;12.80;99.90
1704;DHT22;849;48.780;9.216;2023-04-25T00:46:05;12.70;99.90
1704;DHT22;849;48.780;9.216;2023-04-25T00:48:31;12.70;99.90
1704;DHT22;849;48.780;9.216;2023-04-25T00:50:58;12.80;99.90
1704;DHT22;849;48.780;9.216;2023-04-25T00:53:26;12.80;99.90
1704;DHT22;849;48.780;9.216;2023-04-25T00:55:52;12.70;99.90
1704;DHT22;849;48.780;9.216;2023-04-25T00:58:20;12.80;99.90
1704;DHT22;849;48.780;9.216;2023-04-25T01:00:46;12.70;99.90
1704;DHT22;849;48.780;9.216;2023-04-25T01:03:16;12.70;99.90
1704;DHT22;849;48.780;9.216;2023-04-25T01:05:43;12.70;99.90
1704;DHT22;849;48.780;9.216;2023-04-25T01:08:09;12.70;99.90
1704;DHT22;849;48.780;9.216;2023-04-25T01:10:35;12.60;99.90
1704;DHT22;849;48.780;9.216;2023-04-25T01:13:01;12.50;99.90
1704;DHT22;849;48.780;9.216;2023-04-25T01:15:27;12.50;99.90
1704;DHT22;849;48.780;9.216;2023-04-25T01:17:53;12.30;99.90
1704;DHT22;849;48.780;9.216;2023-04-25T01:20:24;12.30;99.90
1704;DHT22;849;48.780;9.216;2023-04-25T01:22:53;12.30;99.90
1704;DHT22;849;48.780;9.216;2023-04-25T01:25:22;12.30;99.90
1704;DHT22;849;48.780;9.216;2023-04-25T01:27:48;12.30;99.90
1704;DHT22;849;48.780;9.216;2023-04-25T01:30:14;12.40;99.90
1704;DHT22;849;48.780;9.216;2023-04-25T01:32:41;12.50;99.90
1704;DHT22;849;48.780;9.216;2023-04-25T01:35:10;12.60;99.90
1704;DHT22;849;48.780;9.216;2023-04-25T01:37:40;12.60;99.90
1704;DHT22;849;48.780;9.216;2023-04-25T01:40:07;12.50;99.90
1704;DHT22;849;48.780;9.216;2023-04-25T01:42:34;12.60;99.90
1704;DHT22;849;48.780;9.216;2023-04-25T01:45:01;12.60;99.90
1704;DHT22;849;48.780;9.216;2023-04-25T01:47:27;12.60;99.90
1704;DHT22;849;48.780;9.216;2023-04-25T01:49:53;12.70;99.90
1704;DHT22;849;48.780;9.216;2023-04-25T01:52:19;12.70;99.90
1704;DHT22;849;48.780;9.216;2023-04-25T01:54:44;12.80;99.90
1704;DHT22;849;48.780;9.216;2023-04-25T01:57:11;12.80;99.90
1704;DHT22;849;48.780;9.216;2023-04-25T01:59:37;12.70;99.90
1704;DHT22;849;48.780;9.216;2023-04-25T02:02:03;12.70;99.90
1704;DHT22;849;48.780;9.216;2023-04-25T02:04:30;12.70;99.90
1704;DHT22;849;48.780;9.216;2023-04-25T02:06:55;12.70;99.90
1704;DHT22;849;48.780;9.216;2023-04-25T02:09:21;12.70;99.90
1704;DHT22;849;48.780;9.216;2023-04-25T02:11:47;12.50;99.90
1704;DHT22;849;48.780;9.216;2023-04-25T02:14:13;12.40;99.90
1704;DHT22;849;48.780;9.216;2023-04-25T02:16:39;12.30;99.90
1704;DHT22;849;48.780;9.216;2023-04-25T02:19:05;12.30;99.90
1704;DHT22;849;48.780;9.216;2023-04-25T02:21:31;12.30;99.90
1704;DHT22;849;48.780;9.216;2023-04-25T02:23:57;12.00;99.90
1704;DHT22;849;48.780;9.216;2023-04-25T02:26:23;11.70;99.90
1704;DHT22;849;48.780;9.216;2023-04-25T02:28:50;11.80;99.90
1704;DHT22;849;48.780;9.216;2023-04-25T02:31:16;11.80;99.90
1704;DHT22;849;48.780;9.216;2023-04-25T02:33:42;12.00;99.90
1704;DHT22;849;48.780;9.216;2023-04-25T02:36:08;12.10;99.90
1704;DHT22;849;48.780;9.216;2023-04-25T02:38:33;12.20;99.90
1704;DHT22;849;48.780;9.216;2023-04-25T02:40:59;12.30;99.90
1704;DHT22;849;48.780;9.216;2023-04-25T02:43:25;12.30;99.90
1704;DHT22;849;48.780;9.216;2023-04-25T02:45:50;12.30;99.90
1704;DHT22;849;48.780;9.216;2023-04-25T02:48:16;12.30;99.90
1704;DHT22;849;48.780;9.216;2023-04-25T02:50:42;12.20;99.90
1704;DHT22;849;48.780;9.216;2023-04-25T02:53:08;12.30;99.90
1704;DHT22;849;48.780;9.216;2023-04-25T02:55:34;12.40;99.90
1704;DHT22;849;48.780;9.216;2023-04-25T02:58:00;12.40;99.90
1704;DHT22;849;48.780;9.216;2023-04-25T03:00:25;12.40;99.90
1704;DHT22;849;48.780;9.216;2023-04-25T03:02:51;12.40;99.90
1704;DHT22;849;48.780;9.216;2023-04-25T03:05:17;12.30;99.90
1704;DHT22;849;48.780;9.216;2023-04-25T03:07:43;12.30;99.90
1704;DHT22;849;48.780;9.216;2023-04-25T03:10:10;12.30;99.90
1704;DHT22;849;48.780;9.216;2023-04-25T03:12:36;12.40;99.90
1704;DHT22;849;48.780;9.216;2023-04-25T03:15:02;12.40;99.90
1704;DHT22;849;48.780;9.216;2023-04-25T03:17:29;12.40;99.90
1704;DHT22;849;48.780;9.216;2023-04-25T03:19:55;12.40;99.90
1704;DHT22;849;48.780;9.216;2023-04-25T03:22:21;12.40;99.90
1704;DHT22;849;48.780;9.216;2023-04-25T03:24:47;12.30;99.90
1704;DHT22;849;48.780;9.216;2023-04-25T03:27:13;12.30;99.90
1704;DHT22;849;48.780;9.216;2023-04-25T03:29:39;12.20;99.90
1704;DHT22;849;48.780;9.216;2023-04-25T03:32:06;12.10;99.90
1704;DHT22;849;48.780;9.216;2023-04-25T03:34:31;12.30;99.90
1704;DHT22;849;48.780;9.216;2023-04-25T03:36:57;12.30;99.90
1704;DHT22;849;48.780;9.216;2023-04-25T03:39:23;12.30;99.90
1704;DHT22;849;48.780;9.216;2023-04-25T03:41:48;12.40;99.90
1704;DHT22;849;48.780;9.216;2023-04-25T03:44:14;12.40;99.90
1704;DHT22;849;48.780;9.216;2023-04-25T03:46:40;12.50;99.90
1704;DHT22;849;48.780;9.216;2023-04-25T03:49:06;12.50;99.90
1704;DHT22;849;48.780;9.216;2023-04-25T03:51:32;12.50;99.90
1704;DHT22;849;48.780;9.216;2023-04-25T03:53:58;12.50;99.90
1704;DHT22;849;48.780;9.216;2023-04-25T03:56:23;12.40;99.90
1704;DHT22;849;48.780;9.216;2023-04-25T03:58:50;12.40;99.90
1704;DHT22;849;48.780;9.216;2023-04-25T04:01:15;12.30;99.90
1704;DHT22;849;48.780;9.216;2023-04-25T04:03:41;12.40;99.90
1704;DHT22;849;48.780;9.216;2023-04-25T04:06:07;12.40;99.90
1704;DHT22;849;48.780;9.216;2023-04-25T04:08:34;12.40;99.90
1704;DHT22;849;48.780;9.216;2023-04-25T04:11:00;12.20;99.90
1704;DHT22;849;48.780;9.216;2023-04-25T04:13:26;12.30;99.90
1704;DHT22;849;48.780;9.216;2023-04-25T04:15:52;12.30;99.90
1704;DHT22;849;48.780;9.216;2023-04-25T04:18:18;12.30;99.90
1704;DHT22;849;48.780;9.216;2023-04-25T04:20:43;12.20;99.90
1704;DHT22;849;48.780;9.216;2023-04-25T04:23:09;12.30;99.90
1704;DHT22;849;48.780;9.216;2023-04-25T04:25:34;12.20;99.90
1704;DHT22;849;48.780;9.216;2023-04-25T04:28:00;12.10;99.90
1704;DHT22;849;48.780;9.216;2023-04-25T04:30:26;12.00;99.90
1704;DHT22;849;48.780;9.216;2023-04-25T04:32:55;12.00;99.90
1704;DHT22;849;48.780;9.216;2023-04-25T04:35:22;12.00;99.90
1704;DHT22;849;48.780;9.216;2023-04-25T04:37:48;11.90;99.90
1704;DHT22;849;48.780;9.216;2023-04-25T04:40:14;11.80;99.90
1704;DHT22;849;48.780;9.216;2023-04-25T04:42:44;11.60;99.90
1704;DHT22;849;48.780;9.216;2023-04-25T04:45:13;11.60;99.90
1704;DHT22;849;48.780;9.216;2023-04-25T04:47:39;11.70;99.90
1704;DHT22;849;48.780;9.216;2023-04-25T04:50:09;11.80;99.90
1704;DHT22;849;48.780;9.216;2023-04-25T04:52:36;11.90;99.90
1704;DHT22;849;48.780;9.216;2023-04-25T04:55:03;11.90;99.90
1704;DHT22;849;48.780;9.216;2023-04-25T04:57:29;12.00;99.90
1704;DHT22;849;48.780;9.216;2023-04-25T04:59:56;12.00;99.90
1704;DHT22;849;48.780;9.216;2023-04-25T05:02:22;11.90;99.90
1704;DHT22;849;48.780;9.216;2023-04-25T05:04:48;11.70;99.90
1704;DHT22;849;48.780;9.216;2023-04-25T05:07:14;11.80;99.90
1704;DHT22;849;48.780;9.216;2023-04-25T05:09:39;11.90;99.90
1704;DHT22;849;48.780;9.216;2023-04-25T05:12:05;12.10;99.90
1704;DHT22;849;48.780;9.216;2023-04-25T05:14:31;12.20;99.90
1704;DHT22;849;48.780;9.216;2023-04-25T05:16:57;12.30;99.90
1704;DHT22;849;48.780;9.216;2023-04-25T05:19:23;12.10;99.90
1704;DHT22;849;48.780;9.216;2023-04-25T05:21:50;12.20;99.90
1704;DHT22;849;48.780;9.216;2023-04-25T05:24:15;12.30;99.90
1704;DHT22;849;48.780;9.216;2023-04-25T05:26:41;12.50;99.90
1704;DHT22;849;48.780;9.216;2023-04-25T05:29:07;12.50;99.90
1704;DHT22;849;48.780;9.216;2023-04-25T05:31:34;12.40;99.90
1704;DHT22;849;48.780;9.216;2023-04-25T05:33:59;12.30;99.90
1704;DHT22;849;48.780;9.216;2023-04-25T05:36:25;12.00;99.90
1704;DHT22;849;48.780;9.216;2023-04-25T05:38:51;11.90;99.90
1704;DHT22;849;48.780;9.216;2023-04-25T05:41:17;12.00;99.90
1704;DHT22;849;48.780;9.216;2023-04-25T05:43:43;11.80;99.90
1704;DHT22;849;48.780;9.216;2023-04-25T05:46:12;11.40;99.90
1704;DHT22;849;48.780;9.216;2023-04-25T05:48:38;11.50;99.90
1704;DHT22;849;48.780;9.216;2023-04-25T05:51:04;11.50;99.90
1704;DHT22;849;48.780;9.216;2023-04-25T05:53:30;11.40;99.90
1704;DHT22;849;48.780;9.216;2023-04-25T05:55:56;11.30;99.90
1704;DHT22;849;48.780;9.216;2023-04-25T05:58:21;11.30;99.90
1704;DHT22;849;48.780;9.216;2023-04-25T06:00:47;11.30;99.90
1704;DHT22;849;48.780;9.216;2023-04-25T06:03:13;11.40;99.90
1704;DHT22;849;48.780;9.216;2023-04-25T06:05:43;11.20;99.90
1704;DHT22;849;48.780;9.216;2023-04-25T06:08:09;11.40;99.90
1704;DHT22;849;48.780;9.216;2023-04-25T06:10:36;11.30;99.90
1704;DHT22;849;48.780;9.216;2023-04-25T06:13:02;11.20;99.90
1704;DHT22;849;48.780;9.216;2023-04-25T06:15:28;11.40;99.90
1704;DHT22;849;48.780;9.216;2023-04-25T06:17:53;11.60;99.90
1704;DHT22;849;48.780;9.216;2023-04-25T06:20:19;11.90;99.90
1704;DHT22;849;48.780;9.216;2023-04-25T06:22:48;12.00;99.90
1704;DHT22;849;48.780;9.216;2023-04-25T06:25:15;12.10;99.90
1704;DHT22;849;48.780;9.216;2023-04-25T06:27:40;12.00;99.90
1704;DHT22;849;48.780;9.216;2023-04-25T06:30:06;12.00;99.90
1704;DHT22;849;48.780;9.216;2023-04-25T06:32:32;12.00;99.90
1704;DHT22;849;48.780;9.216;2023-04-25T06:35:00;12.10;99.50
1704;DHT22;849;48.780;9.216;2023-04-25T06:37:25;12.20;99.90
1704;DHT22;849;48.780;9.216;2023-04-25T06:39:51;12.10;99.70
1704;DHT22;849;48.780;9.216;2023-04-25T06:42:17;11.80;99.90
1704;DHT22;849;48.780;9.216;2023-04-25T06:44:42;12.10;99.90
1704;DHT22;849;48.780;9.216;2023-04-25T06:47:08;12.30;99.80
1704;DHT22;849;48.780;9.216;2023-04-25T06:49:34;12.10;99.10
1704;DHT22;849;48.780;9.216;2023-04-25T06:51:59;12.10;99.30
1704;DHT22;849;48.780;9.216;2023-04-25T06:54:25;12.00;99.50
1704;DHT22;849;48.780;9.216;2023-04-25T06:56:53;11.50;99.90
1704;DHT22;849;48.780;9.216;2023-04-25T06:59:18;11.20;99.90
1704;DHT22;849;48.780;9.216;2023-04-25T07:01:44;11.20;99.90
1704;DHT22;849;48.780;9.216;2023-04-25T07:04:10;11.10;99.90
1704;DHT22;849;48.780;9.216;2023-04-25T07:06:36;11.00;99.90
1704;DHT22;849;48.780;9.216;2023-04-25T07:09:08;11.40;99.90
1704;DHT22;849;48.780;9.216;2023-04-25T07:11:34;11.80;99.90
1704;DHT22;849;48.780;9.216;2023-04-25T07:13:59;11.90;99.90
1704;DHT22;849;48.780;9.216;2023-04-25T07:16:25;11.90;99.90
1704;DHT22;849;48.780;9.216;2023-04-25T07:18:51;12.00;99.90
1704;DHT22;849;48.780;9.216;2023-04-25T07:21:16;12.20;99.90
1704;DHT22;849;48.780;9.216;2023-04-25T07:23:42;12.30;99.90
1704;DHT22;849;48.780;9.216;2023-04-25T07:26:08;12.20;99.90
1704;DHT22;849;48.780;9.216;2023-04-25T07:28:33;12.10;99.90
1704;DHT22;849;48.780;9.216;2023-04-25T07:30:59;12.20;99.90
1704;DHT22;849;48.780;9.216;2023-04-25T07:33:24;12.30;99.90
1704;DHT22;849;48.780;9.216;2023-04-25T07:35:50;12.40;99.90
1704;DHT22;849;48.780;9.216;2023-04-25T07:38:16;12.20;99.90
1704;DHT22;849;48.780;9.216;2023-04-25T07:40:41;12.20;99.90
1704;DHT22;849;48.780;9.216;2023-04-25T07:43:07;12.10;99.90
1704;DHT22;849;48.780;9.216;2023-04-25T07:45:33;12.00;99.90
1704;DHT22;849;48.780;9.216;2023-04-25T07:47:58;12.00;99.90
1704;DHT22;849;48.780;9.216;2023-04-25T07:50:24;11.90;99.90
1704;DHT22;849;48.780;9.216;2023-04-25T07:52:50;12.00;99.90
1704;DHT22;849;48.780;9.216;2023-04-25T07:55:15;12.10;99.90
1704;DHT22;849;48.780;9.216;2023-04-25T07:57:41;12.20;99.90
1704;DHT22;849;48.780;9.216;2023-04-25T08:00:07;12.30;99.90
1704;DHT22;849;48.780;9.216;2023-04-25T08:02:35;12.20;99.90
1704;DHT22;849;48.780;9.216;2023-04-25T08:05:02;11.80;99.90
1704;DHT22;849;48.780;9.216;2023-04-25T08:07:28;11.50;99.90
1704;DHT22;849;48.780;9.216;2023-04-25T08:09:54;11.70;99.90
1704;DHT22;849;48.780;9.216;2023-04-25T08:12:20;12.00;99.90
1704;DHT22;849;48.780;9.216;2023-04-25T08:14:45;12.30;99.90
1704;DHT22;849;48.780;9.216;2023-04-25T08:17:11;12.50;99.90
1704;DHT22;849;48.780;9.216;2023-04-25T08:19:37;12.60;99.90
1704;DHT22;849;48.780;9.216;2023-04-25T08:22:03;12.60;99.90
1704;DHT22;849;48.780;9.216;2023-04-25T08:24:28;12.20;99.90
1704;DHT22;849;48.780;9.216;2023-04-25T08:26:54;12.30;99.90
1704;DHT22;849;48.780;9.216;2023-04-25T08:29:20;12.40;99.90
1704;DHT22;849;48.780;9.216;2023-04-25T08:31:45;12.50;99.90
1704;DHT22;849;48.780;9.216;2023-04-25T08:34:11;12.50;99.90
1704;DHT22;849;48.780;9.216;2023-04-25T08:36:37;12.50;99.90
1704;DHT22;849;48.780;9.216;2023-04-25T08:39:03;12.50;99.90
1704;DHT22;849;48.780;9.216;2023-04-25T08:41:28;12.50;99.90
1704;DHT22;849;48.780;9.216;2023-04-25T08:43:56;12.50;99.90
1704;DHT22;849;48.780;9.216;2023-04-25T08:46:23;12.60;99.90
1704;DHT22;849;48.780;9.216;2023-04-25T08:48:49;12.40;99.90
1704;DHT22;849;48.780;9.216;2023-04-25T08:51:21;12.30;99.90
1704;DHT22;849;48.780;9.216;2023-04-25T08:53:50;12.20;99.90
1704;DHT22;849;48.780;9.216;2023-04-25T08:56:17;12.20;99.90
1704;DHT22;849;48.780;9.216;2023-04-25T08:58:44;12.30;99.90
1704;DHT22;849;48.780;9.216;2023-04-25T09:01:11;12.20;99.90
1704;DHT22;849;48.780;9.216;2023-04-25T09:03:38;12.20;99.90
1704;DHT22;849;48.780;9.216;2023-04-25T09:06:04;12.10;99.90
1704;DHT22;849;48.780;9.216;2023-04-25T09:08:30;11.80;99.90
1704;DHT22;849;48.780;9.216;2023-04-25T09:10:55;11.80;99.90
1704;DHT22;849;48.780;9.216;2023-04-25T09:13:26;11.90;99.90
1704;DHT22;849;48.780;9.216;2023-04-25T09:15:54;11.90;99.90
1704;DHT22;849;48.780;9.216;2023-04-25T09:18:31;12.00;99.90
1704;DHT22;849;48.780;9.216;2023-04-25T09:21:07;12.20;99.90
1704;DHT22;849;48.780;9.216;2023-04-25T09:26:07;12.30;99.90
1704;DHT22;849;48.780;9.216;2023-04-25T09:28:34;12.30;99.90
1704;DHT22;849;48.780;9.216;2023-04-25T09:31:01;12.30;99.90
1704;DHT22;849;48.780;9.216;2023-04-25T09:33:32;12.20;99.90
1704;DHT22;849;48.780;9.216;2023-04-25T09:38:30;11.60;99.90
1704;DHT22;849;48.780;9.216;2023-04-25T09:40:56;11.60;99.90
1704;DHT22;849;48.780;9.216;2023-04-25T09:43:23;11.70;99.90
1704;DHT22;849;48.780;9.216;2023-04-25T09:45:49;11.60;99.90
1704;DHT22;849;48.780;9.216;2023-04-25T09:48:25;11.50;99.90
1704;DHT22;849;48.780;9.216;2023-04-25T09:51:10;11.70;99.90
1704;DHT22;849;48.780;9.216;2023-04-25T09:53:41;11.80;99.90
1704;DHT22;849;48.780;9.216;2023-04-25T09:56:08;12.00;99.90
1704;DHT22;849;48.780;9.216;2023-04-25T09:58:36;11.90;99.90
1704;DHT22;849;48.780;9.216;2023-04-25T10:01:04;11.60;99.90
1704;DHT22;849;48.780;9.216;2023-04-25T10:03:35;11.60;99.90
1704;DHT22;849;48.780;9.216;2023-04-25T10:06:07;11.60;99.90
1704;DHT22;849;48.780;9.216;2023-04-25T10:08:36;11.40;99.90
1704;DHT22;849;48.780;9.216;2023-04-25T10:11:03;11.20;99.90
1704;DHT22;849;48.780;9.216;2023-04-25T10:13:31;11.00;99.90
1704;DHT22;849;48.780;9.216;2023-04-25T10:16:03;10.80;99.90
1704;DHT22;849;48.780;9.216;2023-04-25T10:18:30;10.70;99.90
1704;DHT22;849;48.780;9.216;2023-04-25T10:20:59;10.50;99.90
1704;DHT22;849;48.780;9.216;2023-04-25T10:23:25;10.60;99.90
1704;DHT22;849;48.780;9.216;2023-04-25T10:25:52;10.80;99.90
1704;DHT22;849;48.780;9.216;2023-04-25T10:28:18;11.00;99.90
1704;DHT22;849;48.780;9.216;2023-04-25T10:30:58;11.20;99.90
1704;DHT22;849;48.780;9.216;2023-04-25T10:33:33;11.40;99.90
1704;DHT22;849;48.780;9.216;2023-04-25T10:36:15;11.50;99.90
1704;DHT22;849;48.780;9.216;2023-04-25T10:38:43;11.50;99.90
1704;DHT22;849;48.780;9.216;2023-04-25T10:41:10;11.70;99.90
1704;DHT22;849;48.780;9.216;2023-04-25T10:43:43;11.80;99.90
1704;DHT22;849;48.780;9.216;2023-04-25T10:46:28;11.90;99.90
1704;DHT22;849;48.780;9.216;2023-04-25T10:48:58;11.70;99.90
1704;DHT22;849;48.780;9.216;2023-04-25T10:51:29;11.40;99.90
1704;DHT22;849;48.780;9.216;2023-04-25T10:56:39;11.70;99.90
1704;DHT22;849;48.780;9.216;2023-04-25T10:59:10;11.60;99.90
1704;DHT22;849;48.780;9.216;2023-04-25T11:01:41;10.70;99.90
1704;DHT22;849;48.780;9.216;2023-04-25T11:09:30;10.30;99.90
1704;DHT22;849;48.780;9.216;2023-04-25T11:11:57;9.90;99.90
1704;DHT22;849;48.780;9.216;2023-04-25T11:14:24;9.50;99.90
1704;DHT22;849;48.780;9.216;2023-04-25T11:16:53;9.30;99.90
1704;DHT22;849;48.780;9.216;2023-04-25T11:19:21;9.40;99.90
1704;DHT22;849;48.780;9.216;2023-04-25T11:21:47;9.80;99.90
1704;DHT22;849;48.780;9.216;2023-04-25T11:24:12;10.20;99.90
1704;DHT22;849;48.780;9.216;2023-04-25T11:26:40;10.50;99.90
1704;DHT22;849;48.780;9.216;2023-04-25T11:29:06;10.70;99.90
1704;DHT22;849;48.780;9.216;2023-04-25T11:31:32;10.80;99.90
1704;DHT22;849;48.780;9.216;2023-04-25T11:33:57;10.80;99.90
1704;DHT22;849;48.780;9.216;2023-04-25T11:36:24;10.80;99.90
1704;DHT22;849;48.780;9.216;2023-04-25T11:38:51;11.10;99.90
1704;DHT22;849;48.780;9.216;2023-04-25T11:41:18;11.40;99.90
1704;DHT22;849;48.780;9.216;2023-04-25T11:43:43;11.60;99.90
1704;DHT22;849;48.780;9.216;2023-04-25T11:46:09;11.60;99.90
1704;DHT22;849;48.780;9.216;2023-04-25T11:48:41;11.50;99.90
1704;DHT22;849;48.780;9.216;2023-04-25T11:51:07;11.60;99.90
1704;DHT22;849;48.780;9.216;2023-04-25T11:53:33;11.40;99.90
1704;DHT22;849;48.780;9.216;2023-04-25T11:55:59;11.20;99.90
1704;DHT22;849;48.780;9.216;2023-04-25T11:58:28;10.60;99.90
1704;DHT22;849;48.780;9.216;2023-04-25T12:00:53;10.80;99.90
1704;DHT22;849;48.780;9.216;2023-04-25T12:03:19;11.10;99.90
1704;DHT22;849;48.780;9.216;2023-04-25T12:05:46;11.30;99.90
1704;DHT22;849;48.780;9.216;2023-04-25T12:08:15;11.50;99.90
1704;DHT22;849;48.780;9.216;2023-04-25T12:10:43;11.40;99.90
1704;DHT22;849;48.780;9.216;2023-04-25T12:13:25;11.50;99.90
1704;DHT22;849;48.780;9.216;2023-04-25T12:15:51;11.60;99.90
1704;DHT22;849;48.780;9.216;2023-04-25T12:18:20;11.90;99.90
1704;DHT22;849;48.780;9.216;2023-04-25T12:20:46;12.00;99.90
1704;DHT22;849;48.780;9.216;2023-04-25T12:23:12;12.00;99.90
1704;DHT22;849;48.780;9.216;2023-04-25T12:25:38;12.00;99.90
1704;DHT22;849;48.780;9.216;2023-04-25T12:28:17;12.10;99.90
1704;DHT22;849;48.780;9.216;2023-04-25T12:31:05;12.00;99.90
1704;DHT22;849;48.780;9.216;2023-04-25T12:33:32;11.40;99.90
1704;DHT22;849;48.780;9.216;2023-04-25T12:35:58;10.80;99.90
1704;DHT22;849;48.780;9.216;2023-04-25T12:38:30;10.90;99.90
1704;DHT22;849;48.780;9.216;2023-04-25T12:40:56;11.20;99.90
1704;DHT22;849;48.780;9.216;2023-04-25T12:43:22;11.50;99.90
1704;DHT22;849;48.780;9.216;2023-04-25T12:45:49;11.80;99.90
1704;DHT22;849;48.780;9.216;2023-04-25T12:48:16;12.10;99.90
1704;DHT22;849;48.780;9.216;2023-04-25T12:50:41;12.20;99.90
1704;DHT22;849;48.780;9.216;2023-04-25T12:53:07;12.40;99.90
1704;DHT22;849;48.780;9.216;2023-04-25T12:55:33;12.50;99.90
1704;DHT22;849;48.780;9.216;2023-04-25T12:57:59;12.50;99.90
1704;DHT22;849;48.780;9.216;2023-04-25T13:00:25;12.50;99.90
1704;DHT22;849;48.780;9.216;2023-04-25T13:02:52;12.60;99.90
1704;DHT22;849;48.780;9.216;2023-04-25T13:05:17;12.70;99.90
1704;DHT22;849;48.780;9.216;2023-04-25T13:07:43;12.90;99.90
1704;DHT22;849;48.780;9.216;2023-04-25T13:10:10;12.50;99.90
1704;DHT22;849;48.780;9.216;2023-04-25T13:12:36;12.60;99.90
1704;DHT22;849;48.780;9.216;2023-04-25T13:15:01;12.70;99.90
1704;DHT22;849;48.780;9.216;2023-04-25T13:17:27;13.00;99.90
1704;DHT22;849;48.780;9.216;2023-04-25T13:19:52;12.90;99.90
1704;DHT22;849;48.780;9.216;2023-04-25T13:22:18;12.90;99.90
1704;DHT22;849;48.780;9.216;2023-04-25T13:24:45;12.80;99.90
1704;DHT22;849;48.780;9.216;2023-04-25T13:27:11;12.80;99.90
1704;DHT22;849;48.780;9.216;2023-04-25T13:29:37;13.00;99.90
1704;DHT22;849;48.780;9.216;2023-04-25T13:32:04;13.10;99.90
1704;DHT22;849;48.780;9.216;2023-04-25T13:34:30;13.20;99.90
1704;DHT22;849;48.780;9.216;2023-04-25T13:36:56;13.10;99.90
1704;DHT22;849;48.780;9.216;2023-04-25T13:39:22;12.80;99.90
1704;DHT22;849;48.780;9.216;2023-04-25T13:41:47;12.50;99.90
1704;DHT22;849;48.780;9.216;2023-04-25T13:44:13;12.40;99.90
1704;DHT22;849;48.780;9.216;2023-04-25T13:46:38;12.60;99.90
1704;DHT22;849;48.780;9.216;2023-04-25T13:49:04;12.90;99.90
1704;DHT22;849;48.780;9.216;2023-04-25T13:51:30;12.90;99.90
1704;DHT22;849;48.780;9.216;2023-04-25T13:53:57;12.90;99.90
1704;DHT22;849;48.780;9.216;2023-04-25T13:56:23;12.50;99.90
1704;DHT22;849;48.780;9.216;2023-04-25T13:58:50;12.50;99.90
1704;DHT22;849;48.780;9.216;2023-04-25T14:01:17;12.60;99.90
1704;DHT22;849;48.780;9.216;2023-04-25T14:03:44;12.40;99.90
1704;DHT22;849;48.780;9.216;2023-04-25T14:06:10;12.50;99.90
1704;DHT22;849;48.780;9.216;2023-04-25T14:08:38;12.70;99.90
1704;DHT22;849;48.780;9.216;2023-04-25T14:11:04;12.80;99.90
1704;DHT22;849;48.780;9.216;2023-04-25T14:13:30;12.70;99.90
1704;DHT22;849;48.780;9.216;2023-04-25T14:15:55;12.80;99.90
1704;DHT22;849;48.780;9.216;2023-04-25T14:18:21;12.90;99.90
1704;DHT22;849;48.780;9.216;2023-04-25T14:20:47;13.10;99.90
1704;DHT22;849;48.780;9.216;2023-04-25T14:23:13;13.20;99.90
1704;DHT22;849;48.780;9.216;2023-04-25T14:25:39;13.20;99.90
1704;DHT22;849;48.780;9.216;2023-04-25T14:28:05;13.40;99.90
1704;DHT22;849;48.780;9.216;2023-04-25T14:30:31;13.50;99.90
1704;DHT22;849;48.780;9.216;2023-04-25T14:32:57;13.40;99.90
1704;DHT22;849;48.780;9.216;2023-04-25T14:35:23;13.40;99.90
1704;DHT22;849;48.780;9.216;2023-04-25T14:37:48;13.50;99.90
1704;DHT22;849;48.780;9.216;2023-04-25T14:40:14;13.90;99.90
1704;DHT22;849;48.780;9.216;2023-04-25T14:42:41;14.20;99.90
1704;DHT22;849;48.780;9.216;2023-04-25T14:45:07;14.20;99.90
1704;DHT22;849;48.780;9.216;2023-04-25T14:47:34;14.10;99.90
1704;DHT22;849;48.780;9.216;2023-04-25T14:50:01;13.80;99.90
1704;DHT22;849;48.780;9.216;2023-04-25T14:52:27;13.70;99.90
1704;DHT22;849;48.780;9.216;2023-04-25T14:54:53;13.50;99.90
1704;DHT22;849;48.780;9.216;2023-04-25T14:57:18;13.60;99.90
1704;DHT22;849;48.780;9.216;2023-04-25T14:59:44;13.10;99.90
1704;DHT22;849;48.780;9.216;2023-04-25T15:02:11;13.40;99.90
1704;DHT22;849;48.780;9.216;2023-04-25T15:04:36;13.50;99.90
1704;DHT22;849;48.780;9.216;2023-04-25T15:07:02;13.60;99.90
1704;DHT22;849;48.780;9.216;2023-04-25T15:09:29;13.90;99.90
1704;DHT22;849;48.780;9.216;2023-04-25T15:11:56;13.90;99.80
1704;DHT22;849;48.780;9.216;2023-04-25T15:14:21;13.60;99.90
1704;DHT22;849;48.780;9.216;2023-04-25T15:16:47;13.10;99.90
1704;DHT22;849;48.780;9.216;2023-04-25T15:19:13;12.80;99.90
1704;DHT22;849;48.780;9.216;2023-04-25T15:21:39;12.80;99.90
1704;DHT22;849;48.780;9.216;2023-04-25T15:24:04;12.70;99.90
1704;DHT22;849;48.780;9.216;2023-04-25T15:26:30;12.70;99.90
1704;DHT22;849;48.780;9.216;2023-04-25T15:28:56;13.20;99.90
1704;DHT22;849;48.780;9.216;2023-04-25T15:31:22;14.40;99.90
1704;DHT22;849;48.780;9.216;2023-04-25T15:33:47;16.10;96.80
1704;DHT22;849;48.780;9.216;2023-04-25T15:36:13;17.00;92.60
1704;DHT22;849;48.780;9.216;2023-04-25T15:38:41;16.60;91.70
1704;DHT22;849;48.780;9.216;2023-04-25T15:41:07;15.70;94.30
1704;DHT22;849;48.780;9.216;2023-04-25T15:43:33;15.70;93.50
1704;DHT22;849;48.780;9.216;2023-04-25T15:46:03;15.50;93.30
1704;DHT22;849;48.780;9.216;2023-04-25T15:48:29;15.20;92.70
1704;DHT22;849;48.780;9.216;2023-04-25T15:50:54;14.70;93.30
1704;DHT22;849;48.780;9.216;2023-04-25T15:53:20;14.50;95.80
1704;DHT22;849;48.780;9.216;2023-04-25T15:55:46;14.20;94.70
1704;DHT22;849;48.780;9.216;2023-04-25T15:58:12;13.70;95.50
1704;DHT22;849;48.780;9.216;2023-04-25T16:00:37;13.20;95.90
1704;DHT22;849;48.780;9.216;2023-04-25T16:03:04;13.20;97.40
1704;DHT22;849;48.780;9.216;2023-04-25T16:05:30;13.50;97.80
1704;DHT22;849;48.780;9.216;2023-04-25T16:07:57;13.00;99.40
1704;DHT22;849;48.780;9.216;2023-04-25T16:10:22;13.00;99.00
1704;DHT22;849;48.780;9.216;2023-04-25T16:12:48;13.10;98.80
1704;DHT22;849;48.780;9.216;2023-04-25T16:15:15;13.00;98.70
1704;DHT22;849;48.780;9.216;2023-04-25T16:17:41;12.70;99.70
1704;DHT22;849;48.780;9.216;2023-04-25T16:20:07;12.40;99.80
1704;DHT22;849;48.780;9.216;2023-04-25T16:22:41;12.60;99.80
1704;DHT22;849;48.780;9.216;2023-04-25T16:25:07;12.60;99.90
1704;DHT22;849;48.780;9.216;2023-04-25T16:27:33;12.60;99.90